sensor_id;sensor_type;location;lat;lon;timestamp;P1;durP1;ratioP1;P2;durP2;ratioP2
68985;SDS011;56035;37.534;-122.308;2023-06-22T00:01:18;9.30;;;2.40;;
68985;SDS011;56035;37.534;-122.308;2023-06-22T00:03:45;6.20;;;1.50;;
68985;SDS011;56035;37.534;-122.308;2023-06-22T00:06:11;9.77;;;1.80;;
68985;SDS011;56035;37.534;-122.308;2023-06-22T00:08:38;7.90;;;1.90;;
68985;SDS011;56035;37.534;-122.308;2023-06-22T00:11:05;6.83;;;1.80;;
68985;SDS011;56035;37.534;-122.308;2023-06-22T00:13:34;6.30;;;2.00;;
68985;SDS011;56035;37.534;-122.308;2023-06-22T00:16:01;7.80;;;2.28;;
68985;SDS011;56035;37.534;-122.308;2023-06-22T00:18:27;7.25;;;1.85;;
68985;SDS011;56035;37.534;-122.308;2023-06-22T00:20:55;10.67;;;2.37;;
68985;SDS011;56035;37.534;-122.308;2023-06-22T00:23:23;7.37;;;2.00;;
68985;SDS011;56035;37.534;-122.308;2023-06-22T00:25:50;7.60;;;2.47;;
68985;SDS011;56035;37.534;-122.308;2023-06-22T00:30:43;9.00;;;2.27;;
68985;SDS011;56035;37.534;-122.308;2023-06-22T00:33:09;9.80;;;2.10;;
68985;SDS011;56035;37.534;-122.308;2023-06-22T00:35:35;7.18;;;2.03;;
68985;SDS011;56035;37.534;-122.308;2023-06-22T00:38:02;9.23;;;2.08;;
68985;SDS011;56035;37.534;-122.308;2023-06-22T00:40:30;7.37;;;1.80;;
68985;SDS011;56035;37.534;-122.308;2023-06-22T00:42:58;8.80;;;2.23;;
68985;SDS011;56035;37.534;-122.308;2023-06-22T00:50:22;10.57;;;2.20;;
68985;SDS011;56035;37.534;-122.308;2023-06-22T00:52:51;6.30;;;1.80;;
68985;SDS011;56035;37.534;-122.308;2023-06-22T00:55:22;7.60;;;2.07;;
68985;SDS011;56035;37.534;-122.308;2023-06-22T00:57:48;8.60;;;2.27;;
68985;SDS011;56035;37.534;-122.308;2023-06-22T01:00:15;8.57;;;1.83;;
68985;SDS011;56035;37.534;-122.308;2023-06-22T01:02:45;7.80;;;2.00;;
68985;SDS011;56035;37.534;-122.308;2023-06-22T01:05:17;6.50;;;1.83;;
68985;SDS011;56035;37.534;-122.308;2023-06-22T01:07:48;6.77;;;1.97;;
68985;SDS011;56035;37.534;-122.308;2023-06-22T01:10:34;7.80;;;2.10;;
68985;SDS011;56035;37.534;-122.308;2023-06-22T01:13:06;10.10;;;2.20;;
68985;SDS011;56035;37.534;-122.308;2023-06-22T01:15:40;8.97;;;1.90;;
68985;SDS011;56035;37.534;-122.308;2023-06-22T01:18:11;9.93;;;1.93;;
68985;SDS011;56035;37.534;-122.308;2023-06-22T01:20:39;9.50;;;2.20;;
68985;SDS011;56035;37.534;-122.308;2023-06-22T01:26:09;10.17;;;2.07;;
68985;SDS011;56035;37.534;-122.308;2023-06-22T01:28:47;9.37;;;2.60;;
68985;SDS011;56035;37.534;-122.308;2023-06-22T01:31:19;11.43;;;2.73;;
68985;SDS011;56035;37.534;-122.308;2023-06-22T01:33:50;7.03;;;2.17;;
68985;SDS011;56035;37.534;-122.308;2023-06-22T01:36:24;9.03;;;2.17;;
68985;SDS011;56035;37.534;-122.308;2023-06-22T01:38:52;9.40;;;2.70;;
68985;SDS011;56035;37.534;-122.308;2023-06-22T01:41:23;10.38;;;2.15;;
68985;SDS011;56035;37.534;-122.308;2023-06-22T01:43:51;10.03;;;2.23;;
68985;SDS011;56035;37.534;-122.308;2023-06-22T01:46:19;7.97;;;2.10;;
68985;SDS011;56035;37.534;-122.308;2023-06-22T01:48:46;11.47;;;2.00;;
68985;SDS011;56035;37.534;-122.308;2023-06-22T01:53:39;8.63;;;2.10;;
68985;SDS011;56035;37.534;-122.308;2023-06-22T01:56:06;9.20;;;2.30;;
68985;SDS011;56035;37.534;-122.308;2023-06-22T02:01:07;6.67;;;2.30;;
68985;SDS011;56035;37.534;-122.308;2023-06-22T02:04:11;9.07;;;2.28;;
68985;SDS011;56035;37.534;-122.308;2023-06-22T02:06:31;8.57;;;2.13;;
68985;SDS011;56035;37.534;-122.308;2023-06-22T02:09:02;9.60;;;2.83;;
68985;SDS011;56035;37.534;-122.308;2023-06-22T02:11:34;8.53;;;2.50;;
68985;SDS011;56035;37.534;-122.308;2023-06-22T02:14:01;7.87;;;2.67;;
68985;SDS011;56035;37.534;-122.308;2023-06-22T02:16:28;11.55;;;3.05;;
68985;SDS011;56035;37.534;-122.308;2023-06-22T02:18:57;8.77;;;2.33;;
68985;SDS011;56035;37.534;-122.308;2023-06-22T02:21:32;9.33;;;2.63;;
68985;SDS011;56035;37.534;-122.308;2023-06-22T02:23:59;9.40;;;2.70;;
68985;SDS011;56035;37.534;-122.308;2023-06-22T02:26:25;10.40;;;3.17;;
68985;SDS011;56035;37.534;-122.308;2023-06-22T02:28:57;10.67;;;2.47;;
68985;SDS011;56035;37.534;-122.308;2023-06-22T02:31:24;7.50;;;2.30;;
68985;SDS011;56035;37.534;-122.308;2023-06-22T02:33:58;7.03;;;2.17;;
68985;SDS011;56035;37.534;-122.308;2023-06-22T02:36:25;7.03;;;2.17;;
68985;SDS011;56035;37.534;-122.308;2023-06-22T02:38:55;9.97;;;2.27;;
68985;SDS011;56035;37.534;-122.308;2023-06-22T02:41:24;6.83;;;2.37;;
68985;SDS011;56035;37.534;-122.308;2023-06-22T02:43:52;8.17;;;2.80;;
68985;SDS011;56035;37.534;-122.308;2023-06-22T02:46:18;6.55;;;2.10;;
68985;SDS011;56035;37.534;-122.308;2023-06-22T02:48:45;8.57;;;2.78;;
68985;SDS011;56035;37.534;-122.308;2023-06-22T02:51:11;9.68;;;2.53;;
68985;SDS011;56035;37.534;-122.308;2023-06-22T02:53:39;8.93;;;2.28;;
68985;SDS011;56035;37.534;-122.308;2023-06-22T02:56:09;11.83;;;2.63;;
68985;SDS011;56035;37.534;-122.308;2023-06-22T02:58:37;7.47;;;2.57;;
68985;SDS011;56035;37.534;-122.308;2023-06-22T03:01:05;10.77;;;2.70;;
68985;SDS011;56035;37.534;-122.308;2023-06-22T03:03:31;10.80;;;3.20;;
68985;SDS011;56035;37.534;-122.308;2023-06-22T03:05:58;9.93;;;2.88;;
68985;SDS011;56035;37.534;-122.308;2023-06-22T03:08:27;11.03;;;3.50;;
68985;SDS011;56035;37.534;-122.308;2023-06-22T03:13:20;9.93;;;3.30;;
68985;SDS011;56035;37.534;-122.308;2023-06-22T03:15:48;8.03;;;3.00;;
68985;SDS011;56035;37.534;-122.308;2023-06-22T03:18:15;9.25;;;3.10;;
68985;SDS011;56035;37.534;-122.308;2023-06-22T03:20:41;10.15;;;3.33;;
68985;SDS011;56035;37.534;-122.308;2023-06-22T03:23:08;8.48;;;3.42;;
68985;SDS011;56035;37.534;-122.308;2023-06-22T03:25:36;12.20;;;3.17;;
68985;SDS011;56035;37.534;-122.308;2023-06-22T03:28:02;5.95;;;2.53;;
68985;SDS011;56035;37.534;-122.308;2023-06-22T03:30:29;11.82;;;2.90;;
68985;SDS011;56035;37.534;-122.308;2023-06-22T03:32:55;8.43;;;3.17;;
68985;SDS011;56035;37.534;-122.308;2023-06-22T03:35:22;10.98;;;3.80;;
68985;SDS011;56035;37.534;-122.308;2023-06-22T03:37:48;11.18;;;3.45;;
68985;SDS011;56035;37.534;-122.308;2023-06-22T03:40:14;8.63;;;3.17;;
68985;SDS011;56035;37.534;-122.308;2023-06-22T03:42:41;12.35;;;3.47;;
68985;SDS011;56035;37.534;-122.308;2023-06-22T03:45:07;9.90;;;3.30;;
68985;SDS011;56035;37.534;-122.308;2023-06-22T03:50:00;11.33;;;3.40;;
68985;SDS011;56035;37.534;-122.308;2023-06-22T03:52:31;12.57;;;3.20;;
68985;SDS011;56035;37.534;-122.308;2023-06-22T03:54:58;9.25;;;3.28;;
68985;SDS011;56035;37.534;-122.308;2023-06-22T03:57:26;7.93;;;3.00;;
68985;SDS011;56035;37.534;-122.308;2023-06-22T03:59:54;13.15;;;3.20;;
68985;SDS011;56035;37.534;-122.308;2023-06-22T04:02:22;12.30;;;3.70;;
68985;SDS011;56035;37.534;-122.308;2023-06-22T04:04:48;7.85;;;3.15;;
68985;SDS011;56035;37.534;-122.308;2023-06-22T04:07:14;11.30;;;4.30;;
68985;SDS011;56035;37.534;-122.308;2023-06-22T04:09:41;12.85;;;3.80;;
68985;SDS011;56035;37.534;-122.308;2023-06-22T04:12:07;13.02;;;3.33;;
68985;SDS011;56035;37.534;-122.308;2023-06-22T04:14:34;10.13;;;3.15;;
68985;SDS011;56035;37.534;-122.308;2023-06-22T04:17:01;15.90;;;3.92;;
68985;SDS011;56035;37.534;-122.308;2023-06-22T04:19:27;11.85;;;3.47;;
68985;SDS011;56035;37.534;-122.308;2023-06-22T04:21:54;15.15;;;3.85;;
68985;SDS011;56035;37.534;-122.308;2023-06-22T04:24:20;14.75;;;3.90;;
68985;SDS011;56035;37.534;-122.308;2023-06-22T04:26:46;11.10;;;3.70;;
68985;SDS011;56035;37.534;-122.308;2023-06-22T04:29:13;13.23;;;4.07;;
68985;SDS011;56035;37.534;-122.308;2023-06-22T04:31:39;17.23;;;4.40;;
68985;SDS011;56035;37.534;-122.308;2023-06-22T04:34:07;9.70;;;3.53;;
68985;SDS011;56035;37.534;-122.308;2023-06-22T04:39:08;10.77;;;3.63;;
68985;SDS011;56035;37.534;-122.308;2023-06-22T04:41:39;10.03;;;3.30;;
68985;SDS011;56035;37.534;-122.308;2023-06-22T04:44:14;13.07;;;3.77;;
68985;SDS011;56035;37.534;-122.308;2023-06-22T04:46:54;12.83;;;4.20;;
68985;SDS011;56035;37.534;-122.308;2023-06-22T04:49:34;11.30;;;4.10;;
68985;SDS011;56035;37.534;-122.308;2023-06-22T04:52:06;11.90;;;3.43;;
68985;SDS011;56035;37.534;-122.308;2023-06-22T04:54:34;14.80;;;3.73;;
68985;SDS011;56035;37.534;-122.308;2023-06-22T04:57:07;13.07;;;3.53;;
68985;SDS011;56035;37.534;-122.308;2023-06-22T04:59:37;13.97;;;3.73;;
68985;SDS011;56035;37.534;-122.308;2023-06-22T05:02:07;11.77;;;3.63;;
68985;SDS011;56035;37.534;-122.308;2023-06-22T05:04:34;11.33;;;3.53;;
68985;SDS011;56035;37.534;-122.308;2023-06-22T05:07:03;10.73;;;3.83;;
68985;SDS011;56035;37.534;-122.308;2023-06-22T05:09:30;15.73;;;4.27;;
68985;SDS011;56035;37.534;-122.308;2023-06-22T05:11:59;11.30;;;3.70;;
68985;SDS011;56035;37.534;-122.308;2023-06-22T05:14:28;15.93;;;4.87;;
68985;SDS011;56035;37.534;-122.308;2023-06-22T05:16:55;8.20;;;3.60;;
68985;SDS011;56035;37.534;-122.308;2023-06-22T05:19:24;14.43;;;3.40;;
68985;SDS011;56035;37.534;-122.308;2023-06-22T05:21:56;14.60;;;4.40;;
68985;SDS011;56035;37.534;-122.308;2023-06-22T05:24:23;10.75;;;3.70;;
68985;SDS011;56035;37.534;-122.308;2023-06-22T05:26:49;15.00;;;3.95;;
68985;SDS011;56035;37.534;-122.308;2023-06-22T05:29:15;13.30;;;4.03;;
68985;SDS011;56035;37.534;-122.308;2023-06-22T05:31:44;11.63;;;4.20;;
68985;SDS011;56035;37.534;-122.308;2023-06-22T05:34:10;12.88;;;4.13;;
68985;SDS011;56035;37.534;-122.308;2023-06-22T05:36:37;15.30;;;4.45;;
68985;SDS011;56035;37.534;-122.308;2023-06-22T05:39:13;15.60;;;4.43;;
68985;SDS011;56035;37.534;-122.308;2023-06-22T05:41:40;14.70;;;4.40;;
68985;SDS011;56035;37.534;-122.308;2023-06-22T05:44:06;10.55;;;4.30;;
68985;SDS011;56035;37.534;-122.308;2023-06-22T05:46:33;12.13;;;4.28;;
68985;SDS011;56035;37.534;-122.308;2023-06-22T05:48:59;13.38;;;4.10;;
68985;SDS011;56035;37.534;-122.308;2023-06-22T05:51:26;12.02;;;3.92;;
68985;SDS011;56035;37.534;-122.308;2023-06-22T05:53:52;11.15;;;4.13;;
68985;SDS011;56035;37.534;-122.308;2023-06-22T05:56:19;14.32;;;4.60;;
68985;SDS011;56035;37.534;-122.308;2023-06-22T05:58:45;10.00;;;3.67;;
68985;SDS011;56035;37.534;-122.308;2023-06-22T06:06:07;15.57;;;4.70;;
68985;SDS011;56035;37.534;-122.308;2023-06-22T06:08:33;18.13;;;4.57;;
68985;SDS011;56035;37.534;-122.308;2023-06-22T06:11:00;12.73;;;4.88;;
68985;SDS011;56035;37.534;-122.308;2023-06-22T06:13:26;15.98;;;4.50;;
68985;SDS011;56035;37.534;-122.308;2023-06-22T06:15:53;16.30;;;4.57;;
68985;SDS011;56035;37.534;-122.308;2023-06-22T06:18:22;19.80;;;4.77;;
68985;SDS011;56035;37.534;-122.308;2023-06-22T06:20:49;12.80;;;4.88;;
68985;SDS011;56035;37.534;-122.308;2023-06-22T06:23:15;12.15;;;4.22;;
68985;SDS011;56035;37.534;-122.308;2023-06-22T06:25:41;10.40;;;4.38;;
68985;SDS011;56035;37.534;-122.308;2023-06-22T06:28:08;13.35;;;4.43;;
68985;SDS011;56035;37.534;-122.308;2023-06-22T06:30:34;15.02;;;4.72;;
68985;SDS011;56035;37.534;-122.308;2023-06-22T06:33:02;17.60;;;5.07;;
68985;SDS011;56035;37.534;-122.308;2023-06-22T06:35:34;10.37;;;4.37;;
68985;SDS011;56035;37.534;-122.308;2023-06-22T06:38:01;15.60;;;4.97;;
68985;SDS011;56035;37.534;-122.308;2023-06-22T06:40:27;17.48;;;5.03;;
68985;SDS011;56035;37.534;-122.308;2023-06-22T06:42:54;13.15;;;4.28;;
68985;SDS011;56035;37.534;-122.308;2023-06-22T06:45:21;18.10;;;4.80;;
68985;SDS011;56035;37.534;-122.308;2023-06-22T06:47:48;14.03;;;4.90;;
68985;SDS011;56035;37.534;-122.308;2023-06-22T06:50:16;15.73;;;5.17;;
68985;SDS011;56035;37.534;-122.308;2023-06-22T06:52:42;21.13;;;4.93;;
68985;SDS011;56035;37.534;-122.308;2023-06-22T06:55:10;13.88;;;4.90;;
68985;SDS011;56035;37.534;-122.308;2023-06-22T06:57:40;18.07;;;5.40;;
68985;SDS011;56035;37.534;-122.308;2023-06-22T07:00:08;16.27;;;4.33;;
68985;SDS011;56035;37.534;-122.308;2023-06-22T07:02:39;16.33;;;4.93;;
68985;SDS011;56035;37.534;-122.308;2023-06-22T07:05:10;17.60;;;4.70;;
68985;SDS011;56035;37.534;-122.308;2023-06-22T07:07:37;16.80;;;5.13;;
68985;SDS011;56035;37.534;-122.308;2023-06-22T07:10:07;10.63;;;4.75;;
68985;SDS011;56035;37.534;-122.308;2023-06-22T07:12:34;16.73;;;5.33;;
68985;SDS011;56035;37.534;-122.308;2023-06-22T07:15:01;11.45;;;5.32;;
68985;SDS011;56035;37.534;-122.308;2023-06-22T07:17:33;17.07;;;5.40;;
68985;SDS011;56035;37.534;-122.308;2023-06-22T07:20:00;14.40;;;5.65;;
68985;SDS011;56035;37.534;-122.308;2023-06-22T07:22:29;18.20;;;5.40;;
68985;SDS011;56035;37.534;-122.308;2023-06-22T07:24:55;17.73;;;5.65;;
68985;SDS011;56035;37.534;-122.308;2023-06-22T07:27:22;14.35;;;5.78;;
68985;SDS011;56035;37.534;-122.308;2023-06-22T07:29:48;22.13;;;5.32;;
68985;SDS011;56035;37.534;-122.308;2023-06-22T07:32:15;23.00;;;6.40;;
68985;SDS011;56035;37.534;-122.308;2023-06-22T07:37:08;17.10;;;5.20;;
68985;SDS011;56035;37.534;-122.308;2023-06-22T07:39:35;16.77;;;5.25;;
68985;SDS011;56035;37.534;-122.308;2023-06-22T07:42:03;10.60;;;4.37;;
68985;SDS011;56035;37.534;-122.308;2023-06-22T07:44:29;13.52;;;5.18;;
68985;SDS011;56035;37.534;-122.308;2023-06-22T07:46:56;15.10;;;4.78;;
68985;SDS011;56035;37.534;-122.308;2023-06-22T07:49:22;15.50;;;5.20;;
68985;SDS011;56035;37.534;-122.308;2023-06-22T07:51:49;15.68;;;4.93;;
68985;SDS011;56035;37.534;-122.308;2023-06-22T07:54:15;14.40;;;4.57;;
68985;SDS011;56035;37.534;-122.308;2023-06-22T07:56:42;12.30;;;4.80;;
68985;SDS011;56035;37.534;-122.308;2023-06-22T07:59:09;16.98;;;5.15;;
68985;SDS011;56035;37.534;-122.308;2023-06-22T08:01:35;18.02;;;5.97;;
68985;SDS011;56035;37.534;-122.308;2023-06-22T08:04:02;18.83;;;5.18;;
68985;SDS011;56035;37.534;-122.308;2023-06-22T08:06:29;17.05;;;5.13;;
68985;SDS011;56035;37.534;-122.308;2023-06-22T08:08:56;17.43;;;5.50;;
68985;SDS011;56035;37.534;-122.308;2023-06-22T08:11:24;19.90;;;5.10;;
68985;SDS011;56035;37.534;-122.308;2023-06-22T08:13:51;17.75;;;5.70;;
68985;SDS011;56035;37.534;-122.308;2023-06-22T08:18:43;17.83;;;5.00;;
68985;SDS011;56035;37.534;-122.308;2023-06-22T08:21:10;19.05;;;5.20;;
68985;SDS011;56035;37.534;-122.308;2023-06-22T08:23:36;14.80;;;5.68;;
68985;SDS011;56035;37.534;-122.308;2023-06-22T08:26:03;15.30;;;5.03;;
68985;SDS011;56035;37.534;-122.308;2023-06-22T08:28:29;17.25;;;5.03;;
68985;SDS011;56035;37.534;-122.308;2023-06-22T08:33:22;18.33;;;5.43;;
68985;SDS011;56035;37.534;-122.308;2023-06-22T08:35:54;15.13;;;5.00;;
68985;SDS011;56035;37.534;-122.308;2023-06-22T08:38:21;12.53;;;5.17;;
68985;SDS011;56035;37.534;-122.308;2023-06-22T08:40:47;10.95;;;5.07;;
68985;SDS011;56035;37.534;-122.308;2023-06-22T08:43:14;20.20;;;5.68;;
68985;SDS011;56035;37.534;-122.308;2023-06-22T08:45:40;26.00;;;5.65;;
68985;SDS011;56035;37.534;-122.308;2023-06-22T08:48:07;15.77;;;5.65;;
68985;SDS011;56035;37.534;-122.308;2023-06-22T08:50:33;17.10;;;5.25;;
68985;SDS011;56035;37.534;-122.308;2023-06-22T08:53:00;21.10;;;6.00;;
68985;SDS011;56035;37.534;-122.308;2023-06-22T08:55:26;21.95;;;5.82;;
68985;SDS011;56035;37.534;-122.308;2023-06-22T08:57:52;15.93;;;6.45;;
68985;SDS011;56035;37.534;-122.308;2023-06-22T09:00:20;19.50;;;5.70;;
68985;SDS011;56035;37.534;-122.308;2023-06-22T09:02:47;17.17;;;6.38;;
68985;SDS011;56035;37.534;-122.308;2023-06-22T09:05:14;21.03;;;5.90;;
68985;SDS011;56035;37.534;-122.308;2023-06-22T09:07:41;16.10;;;5.90;;
68985;SDS011;56035;37.534;-122.308;2023-06-22T09:10:08;19.03;;;5.90;;
68985;SDS011;56035;37.534;-122.308;2023-06-22T09:12:35;14.73;;;5.63;;
68985;SDS011;56035;37.534;-122.308;2023-06-22T09:15:03;14.33;;;5.13;;
68985;SDS011;56035;37.534;-122.308;2023-06-22T09:19:56;23.27;;;6.00;;
68985;SDS011;56035;37.534;-122.308;2023-06-22T09:22:22;17.45;;;5.53;;
68985;SDS011;56035;37.534;-122.308;2023-06-22T09:24:54;20.13;;;6.53;;
68985;SDS011;56035;37.534;-122.308;2023-06-22T09:27:21;23.67;;;6.40;;
68985;SDS011;56035;37.534;-122.308;2023-06-22T09:29:48;17.38;;;5.80;;
68985;SDS011;56035;37.534;-122.308;2023-06-22T09:32:15;19.93;;;5.33;;
68985;SDS011;56035;37.534;-122.308;2023-06-22T09:34:41;18.20;;;5.60;;
68985;SDS011;56035;37.534;-122.308;2023-06-22T09:37:08;17.02;;;5.90;;
68985;SDS011;56035;37.534;-122.308;2023-06-22T09:39:34;15.15;;;5.72;;
68985;SDS011;56035;37.534;-122.308;2023-06-22T09:42:02;14.87;;;5.73;;
68985;SDS011;56035;37.534;-122.308;2023-06-22T09:44:30;19.13;;;5.53;;
68985;SDS011;56035;37.534;-122.308;2023-06-22T09:46:57;18.35;;;6.43;;
68985;SDS011;56035;37.534;-122.308;2023-06-22T09:49:23;20.10;;;5.25;;
68985;SDS011;56035;37.534;-122.308;2023-06-22T09:51:50;19.35;;;5.70;;
68985;SDS011;56035;37.534;-122.308;2023-06-22T09:54:17;12.73;;;6.20;;
68985;SDS011;56035;37.534;-122.308;2023-06-22T09:56:44;13.98;;;5.10;;
68985;SDS011;56035;37.534;-122.308;2023-06-22T09:59:10;13.65;;;4.22;;
68985;SDS011;56035;37.534;-122.308;2023-06-22T10:01:37;12.43;;;4.82;;
68985;SDS011;56035;37.534;-122.308;2023-06-22T10:04:03;16.33;;;5.55;;
68985;SDS011;56035;37.534;-122.308;2023-06-22T10:06:30;12.65;;;4.53;;
68985;SDS011;56035;37.534;-122.308;2023-06-22T10:08:56;14.18;;;4.90;;
68985;SDS011;56035;37.534;-122.308;2023-06-22T10:11:22;11.70;;;4.60;;
68985;SDS011;56035;37.534;-122.308;2023-06-22T10:13:54;16.33;;;4.37;;
68985;SDS011;56035;37.534;-122.308;2023-06-22T10:16:21;17.73;;;4.93;;
68985;SDS011;56035;37.534;-122.308;2023-06-22T10:18:47;17.15;;;4.53;;
68985;SDS011;56035;37.534;-122.308;2023-06-22T10:21:13;14.25;;;4.40;;
68985;SDS011;56035;37.534;-122.308;2023-06-22T10:26:06;15.50;;;4.40;;
68985;SDS011;56035;37.534;-122.308;2023-06-22T10:28:33;16.15;;;4.40;;
68985;SDS011;56035;37.534;-122.308;2023-06-22T10:30:59;9.52;;;4.35;;
68985;SDS011;56035;37.534;-122.308;2023-06-22T10:33:26;10.90;;;4.40;;
68985;SDS011;56035;37.534;-122.308;2023-06-22T10:35:52;11.75;;;4.28;;
68985;SDS011;56035;37.534;-122.308;2023-06-22T10:38:19;12.35;;;4.30;;
68985;SDS011;56035;37.534;-122.308;2023-06-22T10:40:45;11.07;;;4.07;;
68985;SDS011;56035;37.534;-122.308;2023-06-22T10:43:11;13.77;;;4.10;;
68985;SDS011;56035;37.534;-122.308;2023-06-22T10:45:38;18.80;;;4.32;;
68985;SDS011;56035;37.534;-122.308;2023-06-22T10:48:04;11.93;;;4.10;;
68985;SDS011;56035;37.534;-122.308;2023-06-22T10:50:31;10.45;;;3.28;;
68985;SDS011;56035;37.534;-122.308;2023-06-22T10:52:57;10.80;;;3.75;;
68985;SDS011;56035;37.534;-122.308;2023-06-22T10:55:23;16.42;;;4.50;;
68985;SDS011;56035;37.534;-122.308;2023-06-22T10:57:50;9.80;;;3.38;;
68985;SDS011;56035;37.534;-122.308;2023-06-22T11:00:17;14.43;;;4.13;;
68985;SDS011;56035;37.534;-122.308;2023-06-22T11:02:44;16.45;;;4.68;;
68985;SDS011;56035;37.534;-122.308;2023-06-22T11:05:10;9.88;;;3.53;;
68985;SDS011;56035;37.534;-122.308;2023-06-22T11:07:37;12.40;;;4.15;;
68985;SDS011;56035;37.534;-122.308;2023-06-22T11:10:07;9.80;;;4.50;;
68985;SDS011;56035;37.534;-122.308;2023-06-22T11:12:33;10.40;;;3.70;;
68985;SDS011;56035;37.534;-122.308;2023-06-22T11:15:00;11.10;;;4.13;;
68985;SDS011;56035;37.534;-122.308;2023-06-22T11:17:26;11.90;;;3.65;;
68985;SDS011;56035;37.534;-122.308;2023-06-22T11:19:53;10.35;;;3.92;;
68985;SDS011;56035;37.534;-122.308;2023-06-22T11:22:19;15.52;;;3.42;;
68985;SDS011;56035;37.534;-122.308;2023-06-22T11:24:46;8.27;;;2.40;;
68985;SDS011;56035;37.534;-122.308;2023-06-22T11:27:12;8.43;;;3.45;;
68985;SDS011;56035;37.534;-122.308;2023-06-22T11:29:39;14.32;;;3.92;;
68985;SDS011;56035;37.534;-122.308;2023-06-22T11:32:06;11.68;;;3.53;;
68985;SDS011;56035;37.534;-122.308;2023-06-22T11:34:33;10.67;;;3.40;;
68985;SDS011;56035;37.534;-122.308;2023-06-22T11:36:59;11.32;;;4.45;;
68985;SDS011;56035;37.534;-122.308;2023-06-22T11:39:26;14.30;;;3.55;;
68985;SDS011;56035;37.534;-122.308;2023-06-22T11:41:52;13.07;;;3.50;;
68985;SDS011;56035;37.534;-122.308;2023-06-22T11:44:19;10.20;;;3.85;;
68985;SDS011;56035;37.534;-122.308;2023-06-22T11:46:45;12.63;;;3.55;;
68985;SDS011;56035;37.534;-122.308;2023-06-22T11:49:12;9.47;;;4.10;;
68985;SDS011;56035;37.534;-122.308;2023-06-22T11:51:39;10.13;;;3.72;;
68985;SDS011;56035;37.534;-122.308;2023-06-22T11:54:05;12.77;;;3.28;;
68985;SDS011;56035;37.534;-122.308;2023-06-22T11:56:32;12.88;;;3.85;;
68985;SDS011;56035;37.534;-122.308;2023-06-22T11:58:58;12.00;;;3.80;;
68985;SDS011;56035;37.534;-122.308;2023-06-22T12:01:25;9.80;;;4.50;;
68985;SDS011;56035;37.534;-122.308;2023-06-22T12:03:51;11.63;;;3.85;;
68985;SDS011;56035;37.534;-122.308;2023-06-22T12:06:18;11.40;;;3.22;;
68985;SDS011;56035;37.534;-122.308;2023-06-22T12:08:44;8.05;;;3.38;;
68985;SDS011;56035;37.534;-122.308;2023-06-22T12:11:10;10.75;;;3.10;;
68985;SDS011;56035;37.534;-122.308;2023-06-22T12:13:37;12.13;;;4.30;;
68985;SDS011;56035;37.534;-122.308;2023-06-22T12:16:03;10.05;;;3.55;;
68985;SDS011;56035;37.534;-122.308;2023-06-22T12:18:30;8.23;;;3.33;;
68985;SDS011;56035;37.534;-122.308;2023-06-22T12:20:56;7.75;;;2.92;;
68985;SDS011;56035;37.534;-122.308;2023-06-22T12:23:23;10.60;;;3.05;;
68985;SDS011;56035;37.534;-122.308;2023-06-22T12:25:49;9.70;;;3.10;;
68985;SDS011;56035;37.534;-122.308;2023-06-22T12:28:16;11.10;;;3.97;;
68985;SDS011;56035;37.534;-122.308;2023-06-22T12:30:42;9.68;;;2.90;;
68985;SDS011;56035;37.534;-122.308;2023-06-22T12:33:09;8.30;;;3.20;;
68985;SDS011;56035;37.534;-122.308;2023-06-22T12:35:35;9.30;;;3.47;;
68985;SDS011;56035;37.534;-122.308;2023-06-22T12:38:02;9.30;;;3.25;;
68985;SDS011;56035;37.534;-122.308;2023-06-22T12:40:28;10.30;;;3.05;;
68985;SDS011;56035;37.534;-122.308;2023-06-22T12:42:55;10.75;;;3.08;;
68985;SDS011;56035;37.534;-122.308;2023-06-22T12:45:21;8.68;;;3.33;;
68985;SDS011;56035;37.534;-122.308;2023-06-22T12:47:48;10.63;;;3.40;;
68985;SDS011;56035;37.534;-122.308;2023-06-22T12:50:15;9.43;;;2.90;;
68985;SDS011;56035;37.534;-122.308;2023-06-22T12:52:41;10.48;;;3.65;;
68985;SDS011;56035;37.534;-122.308;2023-06-22T12:55:08;11.80;;;2.90;;
68985;SDS011;56035;37.534;-122.308;2023-06-22T12:57:35;9.17;;;2.77;;
68985;SDS011;56035;37.534;-122.308;2023-06-22T13:00:01;13.77;;;3.47;;
68985;SDS011;56035;37.534;-122.308;2023-06-22T13:02:29;8.47;;;2.67;;
68985;SDS011;56035;37.534;-122.308;2023-06-22T13:04:56;10.20;;;3.55;;
68985;SDS011;56035;37.534;-122.308;2023-06-22T13:07:22;8.77;;;3.13;;
68985;SDS011;56035;37.534;-122.308;2023-06-22T13:09:49;11.38;;;2.95;;
68985;SDS011;56035;37.534;-122.308;2023-06-22T13:12:22;10.37;;;3.40;;
68985;SDS011;56035;37.534;-122.308;2023-06-22T13:14:48;10.37;;;3.27;;
68985;SDS011;56035;37.534;-122.308;2023-06-22T13:17:15;9.07;;;2.80;;
68985;SDS011;56035;37.534;-122.308;2023-06-22T13:19:41;7.47;;;2.67;;
68985;SDS011;56035;37.534;-122.308;2023-06-22T13:22:28;9.30;;;2.78;;
68985;SDS011;56035;37.534;-122.308;2023-06-22T13:24:56;10.50;;;3.13;;
68985;SDS011;56035;37.534;-122.308;2023-06-22T13:27:25;9.83;;;2.60;;
68985;SDS011;56035;37.534;-122.308;2023-06-22T13:29:52;8.82;;;2.70;;
68985;SDS011;56035;37.534;-122.308;2023-06-22T13:32:19;8.70;;;2.70;;
68985;SDS011;56035;37.534;-122.308;2023-06-22T13:34:45;9.80;;;2.95;;
68985;SDS011;56035;37.534;-122.308;2023-06-22T13:37:12;11.52;;;2.42;;
68985;SDS011;56035;37.534;-122.308;2023-06-22T13:39:38;9.55;;;3.05;;
68985;SDS011;56035;37.534;-122.308;2023-06-22T13:42:05;7.70;;;2.78;;
68985;SDS011;56035;37.534;-122.308;2023-06-22T13:44:31;9.63;;;2.70;;
68985;SDS011;56035;37.534;-122.308;2023-06-22T13:46:58;12.02;;;2.70;;
68985;SDS011;56035;37.534;-122.308;2023-06-22T13:49:25;11.43;;;2.80;;
68985;SDS011;56035;37.534;-122.308;2023-06-22T13:54:18;14.17;;;2.83;;
68985;SDS011;56035;37.534;-122.308;2023-06-22T13:56:44;8.95;;;2.65;;
68985;SDS011;56035;37.534;-122.308;2023-06-22T13:59:10;9.23;;;2.70;;
68985;SDS011;56035;37.534;-122.308;2023-06-22T14:01:37;9.35;;;2.70;;
68985;SDS011;56035;37.534;-122.308;2023-06-22T14:04:07;7.77;;;2.80;;
68985;SDS011;56035;37.534;-122.308;2023-06-22T14:06:33;10.48;;;3.17;;
68985;SDS011;56035;37.534;-122.308;2023-06-22T14:08:59;10.10;;;2.58;;
68985;SDS011;56035;37.534;-122.308;2023-06-22T14:11:26;11.38;;;3.10;;
68985;SDS011;56035;37.534;-122.308;2023-06-22T14:13:52;10.50;;;3.15;;
68985;SDS011;56035;37.534;-122.308;2023-06-22T14:16:19;11.45;;;2.88;;
68985;SDS011;56035;37.534;-122.308;2023-06-22T14:18:45;8.75;;;3.13;;
68985;SDS011;56035;37.534;-122.308;2023-06-22T14:21:11;10.68;;;2.88;;
68985;SDS011;56035;37.534;-122.308;2023-06-22T14:23:38;7.30;;;2.50;;
68985;SDS011;56035;37.534;-122.308;2023-06-22T14:26:04;9.50;;;2.75;;
68985;SDS011;56035;37.534;-122.308;2023-06-22T14:28:31;9.73;;;3.00;;
68985;SDS011;56035;37.534;-122.308;2023-06-22T14:30:57;11.27;;;3.05;;
68985;SDS011;56035;37.534;-122.308;2023-06-22T14:33:24;8.45;;;2.40;;
68985;SDS011;56035;37.534;-122.308;2023-06-22T14:35:50;12.48;;;2.67;;
68985;SDS011;56035;37.534;-122.308;2023-06-22T14:38:16;9.48;;;2.92;;
68985;SDS011;56035;37.534;-122.308;2023-06-22T14:40:43;12.32;;;2.67;;
68985;SDS011;56035;37.534;-122.308;2023-06-22T14:43:09;7.28;;;2.63;;
68985;SDS011;56035;37.534;-122.308;2023-06-22T14:45:36;8.88;;;2.92;;